• Join FlightAware (Why Join?)
  • Login
  • US Flag 
04:55AM EDT


 

Airport Tracker/Info


-or-


 

Live Flight TrackerFlight Track Log ✈ N932CD ✈ 09-Aug-2013 ✈ KMRH - KJZI

Flight Track Log - Related Links

Times and Time Zones

All times are in EDT time to prevent confusion due to time zone crossing. See the N932CD flight status page for this flight to view local times or setup timezone preferences in your user account.

Time Position Orientation Groundspeed Altitude Reporting Facility
EDT Latitude Longitude Course Direction KTS MPH feet Rate Location/Type
05:27PM 34.4242 -77.1896 235° Southwest  Level Estimated
05:28PM 34.4070 -77.2189 234° Southwest  Level Estimated
05:29PM 34.3897 -77.2482 234° Southwest  Level Estimated
05:30PM 34.3724 -77.2774 234° Southwest  Level Estimated
05:31PM 34.3552 -77.3067 234° Southwest  Level Estimated
05:32PM 34.3379 -77.3359 234° Southwest  Level Estimated
05:33PM 34.3206 -77.3651 234° Southwest  Level Estimated
05:34PM 34.3033 -77.3943 234° Southwest  Level Estimated
05:35PM 34.2860 -77.4235 234° Southwest  Level Estimated
05:36PM 34.2687 -77.4527 234° Southwest  Level Estimated
05:37PM 34.2514 -77.4819 234° Southwest  Level Estimated
05:38PM 34.2341 -77.5110 234° Southwest  Level Estimated
05:39PM 34.2167 -77.5402 234° Southwest  Level Estimated
05:40PM 34.1994 -77.5693 234° Southwest  Level Estimated
05:41PM 34.1820 -77.5984 234° Southwest  Level Estimated
05:42PM 34.1647 -77.6275 234° Southwest  Level Estimated
05:43PM 34.1473 -77.6566 234° Southwest  Level Estimated
05:44PM 34.1300 -77.6857 234° Southwest  Level Estimated
05:45PM 34.1126 -77.7148 234° Southwest  Level Estimated
05:46PM 34.0952 -77.7438 234° Southwest  Level Estimated
05:47PM 34.0779 -77.7729 234° Southwest  Level Estimated
05:48PM 34.0605 -77.8019 234° Southwest  Level Estimated
05:49PM 34.0431 -77.8309 234° Southwest  Level Estimated
05:50PM 34.0257 -77.8599 234° Southwest  Level Estimated
05:51PM 34.0083 -77.8889 234° Southwest  Level Estimated
05:52PM 33.9908 -77.9179 234° Southwest  Level Estimated
05:53PM 33.9735 -77.9468 234° Southwest  Level Estimated
05:54PM 33.9561 -77.9756 234° Southwest  Level Estimated
05:55PM 33.9388 -78.0045 234° Southwest  Level Estimated
05:56PM 33.9214 -78.0333 234° Southwest  Level Estimated
05:57PM 33.9040 -78.0621 234° Southwest  Level Estimated
05:58PM 33.8866 -78.0909 234° Southwest  Level Estimated
05:59PM 33.8692 -78.1197 234° Southwest  Level Estimated
06:00PM 33.8518 -78.1485 234° Southwest  Level Estimated
06:01PM 33.8344 -78.1773 234° Southwest  Level Estimated
06:02PM 33.8170 -78.2060 234° Southwest  Level Estimated
06:03PM 33.7995 -78.2348 234° Southwest  Level Estimated
06:04PM 33.7821 -78.2635 234° Southwest  Level Estimated
06:05PM 33.7647 -78.2922 234° Southwest  Level Estimated
06:06PM 33.7472 -78.3209 234° Southwest  Level Estimated
06:07PM 33.7298 -78.3496 234° Southwest  Level Estimated
06:08PM 33.7123 -78.3783 234° Southwest  Level Estimated
06:09PM 33.6949 -78.4070 234° Southwest  Level Estimated
06:10PM 33.6774 -78.4357 234° Southwest  Level Estimated
06:11PM 33.6599 -78.4643 234° Southwest  Level Estimated
06:12PM 33.6425 -78.4929 234° Southwest  Level Estimated
06:13PM 33.6250 -78.5216 234° Southwest  Level Estimated
06:14PM 33.6075 -78.5502 234° Southwest  Level Estimated
06:15PM 33.5900 -78.5788 234° Southwest  Level Estimated
06:16PM 33.5725 -78.6074 234° Southwest  Level Estimated
06:17PM 33.5550 -78.6360 234° Southwest  Level Estimated
06:18PM 33.5374 -78.6645 234° Southwest  Level Estimated
06:19PM 33.5199 -78.6931 234° Southwest  Level Estimated
06:20PM 33.5024 -78.7216 234° Southwest  Level Estimated
06:21PM 33.4848 -78.7502 234° Southwest  Level Estimated
06:22PM 33.4673 -78.7787 234° Southwest  Level Estimated
06:23PM 33.4497 -78.8072 234° Southwest  Level Estimated
06:24PM 33.4322 -78.8357 234° Southwest  Level Estimated
06:25PM 33.4146 -78.8642 234° Southwest  Level Estimated
06:26PM 33.3970 -78.8927 234° Southwest  Level Estimated
06:27PM 33.3795 -78.9211 234° Southwest  Level Estimated
06:28PM 33.3619 -78.9496 234° Southwest  Level Estimated
06:29PM 33.3443 -78.9780 233° Southwest  Level Estimated
06:30PM 33.3267 -79.0065 233° Southwest  Level Estimated
06:31PM 33.3091 -79.0349 233° Southwest  Level Estimated
06:32PM 33.2915 -79.0633 233° Southwest  Level Estimated
06:33PM 33.2738 -79.0917 233° Southwest  Level Estimated
06:34PM 33.2562 -79.1201 233° Southwest  Level Estimated
06:35PM 33.2386 -79.1485 233° Southwest  Level Estimated
06:36PM 33.2209 -79.1768 233° Southwest  Level Estimated
06:37PM 33.2033 -79.2052 233° Southwest  Level Estimated
06:38PM 33.1856 -79.2335 233° Southwest  Level Estimated
06:39PM 33.1680 -79.2618 233° Southwest  Level Estimated
06:40PM 33.1503 -79.2902 233° Southwest  Level Estimated
06:41PM 33.1327 -79.3185 233° Southwest  Level Estimated
06:42PM 33.1150 -79.3467 233° Southwest  Level Estimated
06:43PM 33.0973 -79.3750 233° Southwest  Level Estimated
06:44PM 33.0796 -79.4033 233° Southwest  Level Estimated
06:45PM 33.0619 -79.4316 233° Southwest  Level Estimated
06:46PM 33.0442 -79.4598 233° Southwest  Level Estimated
06:47PM 33.0265 -79.4881 233° Southwest  Level Estimated
06:48PM 33.0088 -79.5163 233° Southwest  Level Estimated
06:49PM 32.9911 -79.5445 233° Southwest  Level Estimated
06:50PM 32.9733 -79.5727 233° Southwest  Level Estimated
06:51PM 32.9556 -79.6009 233° Southwest  Level Estimated
06:52PM 32.9379 -79.6291 233° Southwest  Level Estimated
06:53PM 32.9201 -79.6572 233° Southwest  Level Estimated
06:54PM 32.9024 -79.6854 233° Southwest  Level Estimated
06:55PM 32.8846 -79.7135 233° Southwest  Level Estimated
06:56PM 32.8668 -79.7417 233° Southwest  Level Estimated
06:57PM 32.8491 -79.7698 233° Southwest  Level Estimated
06:58PM 32.8313 -79.7979 233° Southwest  Level Estimated
06:59PM 32.8135 -79.8260 233° Southwest  Level Estimated
07:00PM 32.7957 -79.8541 233° Southwest  Level Estimated
07:01PM 32.7779 -79.8822 233° Southwest  Level Estimated
07:02PM 32.7601 -79.9102 233° Southwest  Level Estimated
07:03PM 32.7423 -79.9383 233° Southwest  Level Estimated
07:04PM 32.7245 -79.9663 233° Southwest  Level Estimated
07:05PM 32.7067 -79.9944 233° Southwest  Level Estimated
07:06PM 32.7010 -80.0033 233° Southwest  Level Estimated
07:07PM 32.7010 -80.0033 180° South  Level Estimated
07:08PM 32.7010 -80.0033 180° South  Level Estimated
07:09PM 32.7010 -80.0033 180° South  Level Estimated
07:10PM 32.7010 -80.0033 180° South  Level Estimated
07:11PM 32.7010 -80.0033 180° South  Level Estimated
07:12PM 32.7010 -80.0033 180° South  Level Estimated
07:13PM 32.7010 -80.0033 180° South  Level Estimated
07:14PM 32.7010 -80.0033 180° South  Level Estimated
07:15PM 32.7010 -80.0033 180° South  Level Estimated
07:16PM 32.7010 -80.0033 180° South  Level Estimated
07:17PM 32.7010 -80.0033 180° South  Level Estimated
07:18PM 32.7010 -80.0033 180° South  Level Estimated
07:19PM 32.7010 -80.0033 180° South  Level Estimated
07:20PM 32.7010 -80.0033 180° South  Level Estimated
07:21PM 32.7010 -80.0033 180° South  Level Estimated
07:22PM 32.7010 -80.0033 180° South  Level Estimated
07:23PM 32.7010 -80.0033 180° South  Level Estimated